Polk City, Florida
Current Conditions -  °F | °C
As of 9:53 AM on Sunday 23 Nov 2014 (Local Time) from KGIF Reporting Station
Broken Clouds Broken Clouds  
Wind Chill: 76°   Ceiling: 1500
Heat Index: 76°   Visibility: 10mi
Dew Point: 71°   Wind: 14mph
Humidity: 85%   Direction: 170°S
Pressure: 30.03"   Gusts: NA
Location:  28.18°N, 81.82°W
Report Text: KGIF 231453Z AUTO 17012KT 10SM BKN015 24/22 A3003 RMK AO2 SLP166 T02440217 50002
Loading
Personal Weather Stations






























Interactive Weather Map New forecast layout! Learn more

10-Day Weather Forecast

Advertisements
Track Severe Weather on mobile